sensor_id;sensor_type;location;lat;lon;timestamp;P1;durP1;ratioP1;P2;durP2;ratioP2
71869;SDS011;59739;47.696;11.746;2022-11-15T00:02:23;2.42;;;1.83;;
71869;SDS011;59739;47.696;11.746;2022-11-15T00:05:08;3.55;;;1.85;;
71869;SDS011;59739;47.696;11.746;2022-11-15T00:07:52;2.90;;;1.48;;
71869;SDS011;59739;47.696;11.746;2022-11-15T00:10:37;1.75;;;1.30;;
71869;SDS011;59739;47.696;11.746;2022-11-15T00:13:21;5.18;;;1.48;;
71869;SDS011;59739;47.696;11.746;2022-11-15T00:16:06;1.83;;;1.55;;
71869;SDS011;59739;47.696;11.746;2022-11-15T00:18:52;1.27;;;1.17;;
71869;SDS011;59739;47.696;11.746;2022-11-15T00:21:37;1.92;;;1.55;;
71869;SDS011;59739;47.696;11.746;2022-11-15T00:24:21;1.83;;;1.60;;
71869;SDS011;59739;47.696;11.746;2022-11-15T00:27:06;2.28;;;1.90;;
71869;SDS011;59739;47.696;11.746;2022-11-15T00:29:50;2.33;;;1.70;;
71869;SDS011;59739;47.696;11.746;2022-11-15T00:32:34;2.38;;;1.40;;
71869;SDS011;59739;47.696;11.746;2022-11-15T00:35:19;3.30;;;2.25;;
71869;SDS011;59739;47.696;11.746;2022-11-15T00:38:05;1.77;;;1.50;;
71869;SDS011;59739;47.696;11.746;2022-11-15T00:40:49;2.58;;;1.80;;
71869;SDS011;59739;47.696;11.746;2022-11-15T00:43:33;2.40;;;1.63;;
71869;SDS011;59739;47.696;11.746;2022-11-15T00:46:18;1.75;;;1.60;;
71869;SDS011;59739;47.696;11.746;2022-11-15T00:49:02;1.60;;;1.50;;
71869;SDS011;59739;47.696;11.746;2022-11-15T00:51:47;2.83;;;1.40;;
71869;SDS011;59739;47.696;11.746;2022-11-15T00:54:31;2.17;;;1.50;;
71869;SDS011;59739;47.696;11.746;2022-11-15T00:57:16;2.05;;;1.60;;
71869;SDS011;59739;47.696;11.746;2022-11-15T01:00:00;2.05;;;1.35;;
71869;SDS011;59739;47.696;11.746;2022-11-15T01:02:45;1.50;;;1.30;;
71869;SDS011;59739;47.696;11.746;2022-11-15T01:05:29;1.67;;;1.50;;
71869;SDS011;59739;47.696;11.746;2022-11-15T01:08:14;1.60;;;1.42;;
71869;SDS011;59739;47.696;11.746;2022-11-15T01:11:01;1.58;;;1.45;;
71869;SDS011;59739;47.696;11.746;2022-11-15T01:13:47;1.88;;;1.48;;
71869;SDS011;59739;47.696;11.746;2022-11-15T01:16:32;1.75;;;1.30;;
71869;SDS011;59739;47.696;11.746;2022-11-15T01:19:17;1.75;;;1.60;;
71869;SDS011;59739;47.696;11.746;2022-11-15T01:22:01;2.83;;;1.88;;
71869;SDS011;59739;47.696;11.746;2022-11-15T01:24:46;1.50;;;1.40;;
71869;SDS011;59739;47.696;11.746;2022-11-15T01:27:30;1.80;;;1.35;;
71869;SDS011;59739;47.696;11.746;2022-11-15T01:30:15;1.40;;;1.30;;
71869;SDS011;59739;47.696;11.746;2022-11-15T01:32:59;2.63;;;1.33;;
71869;SDS011;59739;47.696;11.746;2022-11-15T01:35:44;2.25;;;1.35;;
71869;SDS011;59739;47.696;11.746;2022-11-15T01:38:28;1.30;;;1.20;;
71869;SDS011;59739;47.696;11.746;2022-11-15T01:41:16;1.75;;;1.52;;
71869;SDS011;59739;47.696;11.746;2022-11-15T01:47:31;1.83;;;1.50;;
71869;SDS011;59739;47.696;11.746;2022-11-15T01:50:22;1.52;;;1.42;;
71869;SDS011;59739;47.696;11.746;2022-11-15T01:53:11;1.30;;;1.17;;
71869;SDS011;59739;47.696;11.746;2022-11-15T01:55:56;1.83;;;1.50;;
71869;SDS011;59739;47.696;11.746;2022-11-15T01:58:41;2.70;;;1.58;;
71869;SDS011;59739;47.696;11.746;2022-11-15T02:01:27;1.27;;;1.17;;
71869;SDS011;59739;47.696;11.746;2022-11-15T02:04:16;1.92;;;1.50;;
71869;SDS011;59739;47.696;11.746;2022-11-15T02:07:08;1.67;;;1.30;;
71869;SDS011;59739;47.696;11.746;2022-11-15T02:09:55;1.60;;;1.27;;
71869;SDS011;59739;47.696;11.746;2022-11-15T02:12:45;1.80;;;1.45;;
71869;SDS011;59739;47.696;11.746;2022-11-15T02:15:33;2.30;;;1.50;;
71869;SDS011;59739;47.696;11.746;2022-11-15T02:18:46;1.70;;;1.52;;
71869;SDS011;59739;47.696;11.746;2022-11-15T02:21:46;2.08;;;1.55;;
71869;SDS011;59739;47.696;11.746;2022-11-15T02:28:31;1.50;;;1.30;;
71869;SDS011;59739;47.696;11.746;2022-11-15T02:31:51;1.90;;;1.60;;
71869;SDS011;59739;47.696;11.746;2022-11-15T02:37:55;1.65;;;1.30;;
71869;SDS011;59739;47.696;11.746;2022-11-15T02:40:53;2.78;;;1.25;;
71869;SDS011;59739;47.696;11.746;2022-11-15T02:43:48;1.52;;;1.27;;
71869;SDS011;59739;47.696;11.746;2022-11-15T02:46:54;2.78;;;1.35;;
71869;SDS011;59739;47.696;11.746;2022-11-15T02:50:00;3.03;;;2.63;;
71869;SDS011;59739;47.696;11.746;2022-11-15T02:52:55;2.17;;;1.48;;
71869;SDS011;59739;47.696;11.746;2022-11-15T02:55:41;1.42;;;1.30;;
71869;SDS011;59739;47.696;11.746;2022-11-15T03:05:46;1.58;;;1.33;;
71869;SDS011;59739;47.696;11.746;2022-11-15T03:11:50;2.45;;;1.38;;
71869;SDS011;59739;47.696;11.746;2022-11-15T03:15:00;1.70;;;1.30;;
71869;SDS011;59739;47.696;11.746;2022-11-15T03:17:55;2.13;;;1.70;;
71869;SDS011;59739;47.696;11.746;2022-11-15T03:20:48;1.25;;;1.15;;
71869;SDS011;59739;47.696;11.746;2022-11-15T03:23:34;1.65;;;1.55;;
71869;SDS011;59739;47.696;11.746;2022-11-15T03:26:21;1.60;;;1.50;;
71869;SDS011;59739;47.696;11.746;2022-11-15T03:29:13;2.22;;;1.58;;
71869;SDS011;59739;47.696;11.746;2022-11-15T03:32:05;1.73;;;1.30;;
71869;SDS011;59739;47.696;11.746;2022-11-15T03:35:01;1.77;;;1.52;;
71869;SDS011;59739;47.696;11.746;2022-11-15T03:37:53;3.40;;;1.60;;
71869;SDS011;59739;47.696;11.746;2022-11-15T03:41:05;1.65;;;1.48;;
71869;SDS011;59739;47.696;11.746;2022-11-15T03:44:01;2.13;;;1.33;;
71869;SDS011;59739;47.696;11.746;2022-11-15T03:47:21;1.73;;;1.38;;
71869;SDS011;59739;47.696;11.746;2022-11-15T03:50:18;1.77;;;1.65;;
71869;SDS011;59739;47.696;11.746;2022-11-15T03:53:05;1.85;;;1.60;;
71869;SDS011;59739;47.696;11.746;2022-11-15T03:55:50;1.48;;;1.20;;
71869;SDS011;59739;47.696;11.746;2022-11-15T03:58:35;1.90;;;1.45;;
71869;SDS011;59739;47.696;11.746;2022-11-15T04:01:19;1.90;;;1.60;;
71869;SDS011;59739;47.696;11.746;2022-11-15T04:04:04;1.80;;;1.52;;
71869;SDS011;59739;47.696;11.746;2022-11-15T04:06:48;1.90;;;1.50;;
71869;SDS011;59739;47.696;11.746;2022-11-15T04:09:33;2.65;;;1.42;;
71869;SDS011;59739;47.696;11.746;2022-11-15T04:12:38;2.63;;;1.27;;
71869;SDS011;59739;47.696;11.746;2022-11-15T04:15:26;1.33;;;1.02;;
71869;SDS011;59739;47.696;11.746;2022-11-15T04:18:12;1.65;;;1.50;;
71869;SDS011;59739;47.696;11.746;2022-11-15T04:20:56;1.42;;;1.33;;
71869;SDS011;59739;47.696;11.746;2022-11-15T04:24:00;2.60;;;1.60;;
71869;SDS011;59739;47.696;11.746;2022-11-15T04:26:57;1.77;;;1.45;;
71869;SDS011;59739;47.696;11.746;2022-11-15T04:29:41;4.40;;;1.50;;
71869;SDS011;59739;47.696;11.746;2022-11-15T04:32:26;7.53;;;3.58;;
71869;SDS011;59739;47.696;11.746;2022-11-15T04:35:10;2.60;;;1.92;;
71869;SDS011;59739;47.696;11.746;2022-11-15T04:37:55;2.92;;;1.80;;
71869;SDS011;59739;47.696;11.746;2022-11-15T04:40:41;2.95;;;1.65;;
71869;SDS011;59739;47.696;11.746;2022-11-15T04:43:26;2.03;;;1.60;;
71869;SDS011;59739;47.696;11.746;2022-11-15T04:46:11;1.83;;;1.40;;
71869;SDS011;59739;47.696;11.746;2022-11-15T04:48:56;2.45;;;1.60;;
71869;SDS011;59739;47.696;11.746;2022-11-15T04:51:40;1.65;;;1.45;;
71869;SDS011;59739;47.696;11.746;2022-11-15T04:54:25;1.70;;;1.30;;
71869;SDS011;59739;47.696;11.746;2022-11-15T04:57:09;1.13;;;1.00;;
71869;SDS011;59739;47.696;11.746;2022-11-15T04:59:54;1.80;;;1.23;;
71869;SDS011;59739;47.696;11.746;2022-11-15T05:02:38;1.48;;;1.38;;
71869;SDS011;59739;47.696;11.746;2022-11-15T05:05:42;1.58;;;1.13;;
71869;SDS011;59739;47.696;11.746;2022-11-15T05:08:26;2.15;;;1.67;;
71869;SDS011;59739;47.696;11.746;2022-11-15T05:11:11;1.65;;;1.30;;
71869;SDS011;59739;47.696;11.746;2022-11-15T05:13:56;1.40;;;1.27;;
71869;SDS011;59739;47.696;11.746;2022-11-15T05:16:40;1.50;;;1.40;;
71869;SDS011;59739;47.696;11.746;2022-11-15T05:19:26;2.35;;;1.85;;
71869;SDS011;59739;47.696;11.746;2022-11-15T05:22:10;3.97;;;2.35;;
71869;SDS011;59739;47.696;11.746;2022-11-15T05:24:55;2.10;;;1.85;;
71869;SDS011;59739;47.696;11.746;2022-11-15T05:27:39;2.22;;;1.60;;
71869;SDS011;59739;47.696;11.746;2022-11-15T05:30:23;1.83;;;1.50;;
71869;SDS011;59739;47.696;11.746;2022-11-15T05:33:08;2.20;;;1.50;;
71869;SDS011;59739;47.696;11.746;2022-11-15T05:35:59;2.00;;;1.60;;
71869;SDS011;59739;47.696;11.746;2022-11-15T05:38:51;2.15;;;1.40;;
71869;SDS011;59739;47.696;11.746;2022-11-15T05:41:40;2.85;;;2.00;;
71869;SDS011;59739;47.696;11.746;2022-11-15T05:44:30;1.70;;;1.50;;
71869;SDS011;59739;47.696;11.746;2022-11-15T05:47:22;1.90;;;1.70;;
71869;SDS011;59739;47.696;11.746;2022-11-15T05:50:12;3.05;;;1.60;;
71869;SDS011;59739;47.696;11.746;2022-11-15T05:52:59;5.47;;;2.05;;
71869;SDS011;59739;47.696;11.746;2022-11-15T05:55:45;2.70;;;1.50;;
71869;SDS011;59739;47.696;11.746;2022-11-15T05:58:31;1.33;;;1.13;;
71869;SDS011;59739;47.696;11.746;2022-11-15T06:01:20;3.25;;;1.48;;
71869;SDS011;59739;47.696;11.746;2022-11-15T06:04:05;2.20;;;1.60;;
71869;SDS011;59739;47.696;11.746;2022-11-15T06:06:50;1.70;;;1.60;;
71869;SDS011;59739;47.696;11.746;2022-11-15T06:09:34;3.80;;;2.13;;
71869;SDS011;59739;47.696;11.746;2022-11-15T06:12:22;2.72;;;1.70;;
71869;SDS011;59739;47.696;11.746;2022-11-15T06:15:07;3.13;;;1.70;;
71869;SDS011;59739;47.696;11.746;2022-11-15T06:17:53;2.30;;;2.10;;
71869;SDS011;59739;47.696;11.746;2022-11-15T06:20:41;2.60;;;1.40;;
71869;SDS011;59739;47.696;11.746;2022-11-15T06:23:26;3.78;;;2.70;;
71869;SDS011;59739;47.696;11.746;2022-11-15T06:26:11;2.70;;;2.05;;
71869;SDS011;59739;47.696;11.746;2022-11-15T06:28:56;2.28;;;1.55;;
71869;SDS011;59739;47.696;11.746;2022-11-15T06:31:40;3.42;;;1.80;;
71869;SDS011;59739;47.696;11.746;2022-11-15T06:34:25;2.50;;;2.05;;
71869;SDS011;59739;47.696;11.746;2022-11-15T06:37:10;1.95;;;1.55;;
71869;SDS011;59739;47.696;11.746;2022-11-15T06:39:55;1.92;;;1.42;;
71869;SDS011;59739;47.696;11.746;2022-11-15T06:42:40;2.17;;;1.45;;
71869;SDS011;59739;47.696;11.746;2022-11-15T06:45:24;2.42;;;1.70;;
71869;SDS011;59739;47.696;11.746;2022-11-15T06:48:09;2.22;;;1.70;;
71869;SDS011;59739;47.696;11.746;2022-11-15T06:50:55;3.85;;;1.98;;
71869;SDS011;59739;47.696;11.746;2022-11-15T06:53:41;3.70;;;2.30;;
71869;SDS011;59739;47.696;11.746;2022-11-15T06:56:26;4.82;;;2.50;;
71869;SDS011;59739;47.696;11.746;2022-11-15T06:59:11;5.28;;;2.60;;
71869;SDS011;59739;47.696;11.746;2022-11-15T07:01:55;4.95;;;2.45;;
71869;SDS011;59739;47.696;11.746;2022-11-15T07:04:40;3.22;;;2.03;;
71869;SDS011;59739;47.696;11.746;2022-11-15T07:07:25;3.38;;;1.80;;
71869;SDS011;59739;47.696;11.746;2022-11-15T07:10:09;2.53;;;1.60;;
71869;SDS011;59739;47.696;11.746;2022-11-15T07:12:55;2.45;;;1.65;;
71869;SDS011;59739;47.696;11.746;2022-11-15T07:15:39;3.30;;;1.65;;
71869;SDS011;59739;47.696;11.746;2022-11-15T07:18:24;5.53;;;1.80;;
71869;SDS011;59739;47.696;11.746;2022-11-15T07:21:11;2.70;;;1.45;;
71869;SDS011;59739;47.696;11.746;2022-11-15T07:23:56;2.05;;;1.85;;
71869;SDS011;59739;47.696;11.746;2022-11-15T07:26:40;1.90;;;1.38;;
71869;SDS011;59739;47.696;11.746;2022-11-15T07:29:24;2.78;;;1.30;;
71869;SDS011;59739;47.696;11.746;2022-11-15T07:32:09;2.65;;;1.50;;
71869;SDS011;59739;47.696;11.746;2022-11-15T07:34:54;1.40;;;1.30;;
71869;SDS011;59739;47.696;11.746;2022-11-15T07:37:39;1.60;;;1.30;;
71869;SDS011;59739;47.696;11.746;2022-11-15T07:40:24;2.00;;;1.50;;
71869;SDS011;59739;47.696;11.746;2022-11-15T07:43:13;1.70;;;1.45;;
71869;SDS011;59739;47.696;11.746;2022-11-15T07:45:58;1.70;;;1.48;;
71869;SDS011;59739;47.696;11.746;2022-11-15T07:48:43;1.45;;;1.35;;
71869;SDS011;59739;47.696;11.746;2022-11-15T07:51:27;2.03;;;1.30;;
71869;SDS011;59739;47.696;11.746;2022-11-15T07:54:12;1.95;;;1.35;;
71869;SDS011;59739;47.696;11.746;2022-11-15T07:56:56;1.40;;;1.30;;
71869;SDS011;59739;47.696;11.746;2022-11-15T07:59:41;3.88;;;2.67;;
71869;SDS011;59739;47.696;11.746;2022-11-15T08:02:25;2.20;;;1.77;;
71869;SDS011;59739;47.696;11.746;2022-11-15T08:05:10;3.17;;;1.75;;
71869;SDS011;59739;47.696;11.746;2022-11-15T08:07:55;1.77;;;1.60;;
71869;SDS011;59739;47.696;11.746;2022-11-15T08:10:41;1.98;;;1.70;;
71869;SDS011;59739;47.696;11.746;2022-11-15T08:13:25;4.13;;;1.65;;
71869;SDS011;59739;47.696;11.746;2022-11-15T08:16:11;2.88;;;1.55;;
71869;SDS011;59739;47.696;11.746;2022-11-15T08:18:56;2.25;;;1.55;;
71869;SDS011;59739;47.696;11.746;2022-11-15T08:21:41;2.40;;;1.90;;
71869;SDS011;59739;47.696;11.746;2022-11-15T08:24:26;1.98;;;1.50;;
71869;SDS011;59739;47.696;11.746;2022-11-15T08:27:11;2.47;;;1.30;;
71869;SDS011;59739;47.696;11.746;2022-11-15T08:29:58;3.28;;;1.65;;
71869;SDS011;59739;47.696;11.746;2022-11-15T08:32:43;1.35;;;1.25;;
71869;SDS011;59739;47.696;11.746;2022-11-15T08:35:28;2.03;;;1.60;;
71869;SDS011;59739;47.696;11.746;2022-11-15T08:38:46;1.77;;;1.25;;
71869;SDS011;59739;47.696;11.746;2022-11-15T08:41:31;1.90;;;1.30;;
71869;SDS011;59739;47.696;11.746;2022-11-15T08:44:19;2.40;;;1.40;;
71869;SDS011;59739;47.696;11.746;2022-11-15T08:47:04;1.48;;;1.15;;
71869;SDS011;59739;47.696;11.746;2022-11-15T08:49:49;2.05;;;1.30;;
71869;SDS011;59739;47.696;11.746;2022-11-15T08:52:35;1.80;;;1.65;;
71869;SDS011;59739;47.696;11.746;2022-11-15T08:55:19;4.07;;;2.20;;
71869;SDS011;59739;47.696;11.746;2022-11-15T08:58:03;3.35;;;1.63;;
71869;SDS011;59739;47.696;11.746;2022-11-15T09:00:48;2.13;;;1.60;;
71869;SDS011;59739;47.696;11.746;2022-11-15T09:03:33;2.83;;;1.42;;
71869;SDS011;59739;47.696;11.746;2022-11-15T09:06:17;1.77;;;1.20;;
71869;SDS011;59739;47.696;11.746;2022-11-15T09:09:02;1.30;;;1.15;;
71869;SDS011;59739;47.696;11.746;2022-11-15T09:11:47;1.40;;;1.30;;
71869;SDS011;59739;47.696;11.746;2022-11-15T09:14:32;1.30;;;1.20;;
71869;SDS011;59739;47.696;11.746;2022-11-15T09:17:17;1.17;;;1.02;;
71869;SDS011;59739;47.696;11.746;2022-11-15T09:20:01;1.25;;;1.00;;
71869;SDS011;59739;47.696;11.746;2022-11-15T09:22:47;2.15;;;1.40;;
71869;SDS011;59739;47.696;11.746;2022-11-15T09:25:31;2.53;;;1.40;;
71869;SDS011;59739;47.696;11.746;2022-11-15T09:28:17;2.63;;;1.30;;
71869;SDS011;59739;47.696;11.746;2022-11-15T09:31:03;1.67;;;1.23;;
71869;SDS011;59739;47.696;11.746;2022-11-15T09:33:49;1.63;;;1.30;;
71869;SDS011;59739;47.696;11.746;2022-11-15T09:36:34;1.65;;;1.35;;
71869;SDS011;59739;47.696;11.746;2022-11-15T09:39:19;1.30;;;1.08;;
71869;SDS011;59739;47.696;11.746;2022-11-15T09:48:50;1.38;;;1.27;;
71869;SDS011;59739;47.696;11.746;2022-11-15T09:51:39;2.60;;;1.20;;
71869;SDS011;59739;47.696;11.746;2022-11-15T09:54:16;1.77;;;1.20;;
71869;SDS011;59739;47.696;11.746;2022-11-15T10:00:11;2.22;;;1.30;;
71869;SDS011;59739;47.696;11.746;2022-11-15T10:03:09;3.50;;;1.05;;
71869;SDS011;59739;47.696;11.746;2022-11-15T10:05:49;1.73;;;1.27;;
71869;SDS011;59739;47.696;11.746;2022-11-15T10:08:22;2.63;;;1.08;;
71869;SDS011;59739;47.696;11.746;2022-11-15T10:11:17;2.10;;;1.20;;
71869;SDS011;59739;47.696;11.746;2022-11-15T10:13:51;1.42;;;1.00;;
71869;SDS011;59739;47.696;11.746;2022-11-15T10:24:45;1.95;;;1.40;;
71869;SDS011;59739;47.696;11.746;2022-11-15T10:27:17;3.20;;;1.75;;
71869;SDS011;59739;47.696;11.746;2022-11-15T10:29:49;2.35;;;1.10;;
71869;SDS011;59739;47.696;11.746;2022-11-15T10:32:19;1.60;;;1.27;;
71869;SDS011;59739;47.696;11.746;2022-11-15T10:34:48;1.40;;;1.00;;
71869;SDS011;59739;47.696;11.746;2022-11-15T10:37:20;2.30;;;1.10;;
71869;SDS011;59739;47.696;11.746;2022-11-15T10:40:15;1.52;;;1.10;;
71869;SDS011;59739;47.696;11.746;2022-11-15T10:42:48;2.70;;;1.20;;
71869;SDS011;59739;47.696;11.746;2022-11-15T10:45:43;1.02;;;0.90;;
71869;SDS011;59739;47.696;11.746;2022-11-15T10:50:37;1.58;;;0.98;;
71869;SDS011;59739;47.696;11.746;2022-11-15T10:53:11;1.20;;;0.93;;
71869;SDS011;59739;47.696;11.746;2022-11-15T10:55:59;1.17;;;1.02;;
71869;SDS011;59739;47.696;11.746;2022-11-15T10:59:13;2.45;;;0.80;;
71869;SDS011;59739;47.696;11.746;2022-11-15T11:01:27;1.23;;;0.93;;
71869;SDS011;59739;47.696;11.746;2022-11-15T11:03:58;1.98;;;1.35;;
71869;SDS011;59739;47.696;11.746;2022-11-15T11:06:27;0.90;;;0.75;;
71869;SDS011;59739;47.696;11.746;2022-11-15T11:14:18;1.63;;;1.00;;
71869;SDS011;59739;47.696;11.746;2022-11-15T11:28:42;1.67;;;0.98;;
71869;SDS011;59739;47.696;11.746;2022-11-15T11:37:12;1.42;;;0.98;;
71869;SDS011;59739;47.696;11.746;2022-11-15T11:43:59;1.80;;;1.42;;
71869;SDS011;59739;47.696;11.746;2022-11-15T11:49:09;2.00;;;1.05;;
71869;SDS011;59739;47.696;11.746;2022-11-15T11:51:43;1.60;;;0.90;;
71869;SDS011;59739;47.696;11.746;2022-11-15T11:57:13;1.63;;;1.40;;
71869;SDS011;59739;47.696;11.746;2022-11-15T12:00:01;1.30;;;1.20;;
71869;SDS011;59739;47.696;11.746;2022-11-15T12:02:41;1.73;;;1.35;;
71869;SDS011;59739;47.696;11.746;2022-11-15T12:08:04;1.80;;;1.33;;
71869;SDS011;59739;47.696;11.746;2022-11-15T12:10:57;3.03;;;1.73;;
71869;SDS011;59739;47.696;11.746;2022-11-15T12:13:32;2.45;;;1.40;;
71869;SDS011;59739;47.696;11.746;2022-11-15T12:18:54;2.58;;;1.20;;
71869;SDS011;59739;47.696;11.746;2022-11-15T12:21:24;4.00;;;1.15;;
71869;SDS011;59739;47.696;11.746;2022-11-15T12:26:52;1.58;;;1.00;;
71869;SDS011;59739;47.696;11.746;2022-11-15T12:29:31;2.03;;;1.13;;
71869;SDS011;59739;47.696;11.746;2022-11-15T12:34:49;2.38;;;1.30;;
71869;SDS011;59739;47.696;11.746;2022-11-15T12:37:32;2.08;;;1.50;;
71869;SDS011;59739;47.696;11.746;2022-11-15T12:42:58;2.58;;;1.25;;
71869;SDS011;59739;47.696;11.746;2022-11-15T12:45:50;1.80;;;1.30;;
71869;SDS011;59739;47.696;11.746;2022-11-15T13:04:12;3.92;;;1.88;;
71869;SDS011;59739;47.696;11.746;2022-11-15T13:06:47;1.30;;;1.20;;
71869;SDS011;59739;47.696;11.746;2022-11-15T13:12:08;3.50;;;1.45;;
71869;SDS011;59739;47.696;11.746;2022-11-15T13:14:41;2.88;;;1.50;;
71869;SDS011;59739;47.696;11.746;2022-11-15T13:17:34;2.75;;;1.30;;
71869;SDS011;59739;47.696;11.746;2022-11-15T13:22:40;4.03;;;1.40;;
71869;SDS011;59739;47.696;11.746;2022-11-15T13:41:29;4.20;;;1.70;;
71869;SDS011;59739;47.696;11.746;2022-11-15T13:44:02;3.30;;;1.90;;
71869;SDS011;59739;47.696;11.746;2022-11-15T13:46:29;2.42;;;1.52;;
71869;SDS011;59739;47.696;11.746;2022-11-15T13:49:03;2.42;;;1.50;;
71869;SDS011;59739;47.696;11.746;2022-11-15T13:51:43;2.83;;;1.55;;
71869;SDS011;59739;47.696;11.746;2022-11-15T13:54:26;3.40;;;2.20;;
71869;SDS011;59739;47.696;11.746;2022-11-15T13:59:37;3.10;;;1.80;;
71869;SDS011;59739;47.696;11.746;2022-11-15T14:02:18;4.38;;;2.25;;
71869;SDS011;59739;47.696;11.746;2022-11-15T14:04:55;2.80;;;1.88;;
71869;SDS011;59739;47.696;11.746;2022-11-15T14:07:27;2.88;;;2.13;;
71869;SDS011;59739;47.696;11.746;2022-11-15T14:09:54;3.38;;;2.30;;
71869;SDS011;59739;47.696;11.746;2022-11-15T14:12:54;4.15;;;2.00;;
71869;SDS011;59739;47.696;11.746;2022-11-15T14:15:34;4.03;;;2.30;;
71869;SDS011;59739;47.696;11.746;2022-11-15T14:18:02;6.55;;;2.63;;
71869;SDS011;59739;47.696;11.746;2022-11-15T14:25:56;5.05;;;2.22;;
71869;SDS011;59739;47.696;11.746;2022-11-15T14:30:51;3.40;;;1.88;;
71869;SDS011;59739;47.696;11.746;2022-11-15T14:36:13;4.03;;;2.47;;
71869;SDS011;59739;47.696;11.746;2022-11-15T14:38:42;5.25;;;2.22;;
71869;SDS011;59739;47.696;11.746;2022-11-15T14:41:18;4.80;;;2.20;;
71869;SDS011;59739;47.696;11.746;2022-11-15T14:43:50;3.65;;;2.13;;
71869;SDS011;59739;47.696;11.746;2022-11-15T14:46:17;4.43;;;2.00;;
71869;SDS011;59739;47.696;11.746;2022-11-15T14:48:43;3.28;;;1.98;;
71869;SDS011;59739;47.696;11.746;2022-11-15T14:51:14;5.32;;;2.35;;
71869;SDS011;59739;47.696;11.746;2022-11-15T14:53:44;4.57;;;2.03;;
71869;SDS011;59739;47.696;11.746;2022-11-15T14:56:11;3.33;;;2.13;;
71869;SDS011;59739;47.696;11.746;2022-11-15T14:58:38;3.03;;;2.28;;
71869;SDS011;59739;47.696;11.746;2022-11-15T15:01:15;3.47;;;2.40;;
71869;SDS011;59739;47.696;11.746;2022-11-15T15:03:48;2.90;;;2.20;;
71869;SDS011;59739;47.696;11.746;2022-11-15T15:06:16;4.18;;;2.40;;
71869;SDS011;59739;47.696;11.746;2022-11-15T15:08:43;3.95;;;2.70;;
71869;SDS011;59739;47.696;11.746;2022-11-15T15:11:21;5.68;;;2.50;;
71869;SDS011;59739;47.696;11.746;2022-11-15T15:13:51;5.75;;;2.45;;
71869;SDS011;59739;47.696;11.746;2022-11-15T15:16:18;2.80;;;2.05;;
71869;SDS011;59739;47.696;11.746;2022-11-15T15:18:44;5.90;;;2.08;;
71869;SDS011;59739;47.696;11.746;2022-11-15T15:21:26;3.65;;;1.92;;
71869;SDS011;59739;47.696;11.746;2022-11-15T15:23:54;2.97;;;1.88;;
71869;SDS011;59739;47.696;11.746;2022-11-15T15:26:20;2.55;;;2.03;;
71869;SDS011;59739;47.696;11.746;2022-11-15T15:28:48;2.90;;;2.25;;
71869;SDS011;59739;47.696;11.746;2022-11-15T15:31:16;4.03;;;2.80;;
71869;SDS011;59739;47.696;11.746;2022-11-15T15:33:43;4.10;;;2.70;;
71869;SDS011;59739;47.696;11.746;2022-11-15T15:36:10;3.40;;;2.58;;
71869;SDS011;59739;47.696;11.746;2022-11-15T15:38:38;4.22;;;2.50;;
71869;SDS011;59739;47.696;11.746;2022-11-15T15:41:15;3.63;;;2.90;;
71869;SDS011;59739;47.696;11.746;2022-11-15T15:43:43;6.07;;;3.92;;
71869;SDS011;59739;47.696;11.746;2022-11-15T15:46:13;3.30;;;3.00;;
71869;SDS011;59739;47.696;11.746;2022-11-15T15:48:42;4.63;;;3.63;;
71869;SDS011;59739;47.696;11.746;2022-11-15T15:51:09;4.47;;;2.80;;
71869;SDS011;59739;47.696;11.746;2022-11-15T15:53:35;5.95;;;3.08;;
71869;SDS011;59739;47.696;11.746;2022-11-15T15:56:02;5.60;;;3.25;;
71869;SDS011;59739;47.696;11.746;2022-11-15T15:58:28;5.00;;;3.08;;
71869;SDS011;59739;47.696;11.746;2022-11-15T16:00:55;5.43;;;3.20;;
71869;SDS011;59739;47.696;11.746;2022-11-15T16:03:21;7.47;;;4.55;;
71869;SDS011;59739;47.696;11.746;2022-11-15T16:05:49;8.43;;;4.88;;
71869;SDS011;59739;47.696;11.746;2022-11-15T16:08:22;5.63;;;4.10;;
71869;SDS011;59739;47.696;11.746;2022-11-15T16:10:51;5.35;;;4.55;;
71869;SDS011;59739;47.696;11.746;2022-11-15T16:13:17;10.00;;;6.78;;
71869;SDS011;59739;47.696;11.746;2022-11-15T16:15:44;7.18;;;5.97;;
71869;SDS011;59739;47.696;11.746;2022-11-15T16:18:15;10.40;;;8.02;;
71869;SDS011;59739;47.696;11.746;2022-11-15T16:20:48;8.85;;;6.90;;
71869;SDS011;59739;47.696;11.746;2022-11-15T16:23:17;11.68;;;8.00;;
71869;SDS011;59739;47.696;11.746;2022-11-15T16:25:48;9.82;;;7.38;;
71869;SDS011;59739;47.696;11.746;2022-11-15T16:30:58;9.25;;;6.80;;
71869;SDS011;59739;47.696;11.746;2022-11-15T16:33:38;10.10;;;7.07;;
71869;SDS011;59739;47.696;11.746;2022-11-15T16:36:06;9.40;;;6.13;;
71869;SDS011;59739;47.696;11.746;2022-11-15T16:38:45;8.50;;;5.93;;
71869;SDS011;59739;47.696;11.746;2022-11-15T16:41:12;11.35;;;5.90;;
71869;SDS011;59739;47.696;11.746;2022-11-15T16:43:47;10.32;;;6.63;;
71869;SDS011;59739;47.696;11.746;2022-11-15T16:46:18;7.75;;;6.07;;
71869;SDS011;59739;47.696;11.746;2022-11-15T16:48:47;9.82;;;5.97;;
71869;SDS011;59739;47.696;11.746;2022-11-15T16:51:14;7.88;;;5.00;;
71869;SDS011;59739;47.696;11.746;2022-11-15T16:53:40;6.65;;;5.43;;
71869;SDS011;59739;47.696;11.746;2022-11-15T16:56:26;9.23;;;5.20;;
71869;SDS011;59739;47.696;11.746;2022-11-15T16:58:58;7.07;;;5.32;;
71869;SDS011;59739;47.696;11.746;2022-11-15T17:01:32;7.28;;;5.57;;
71869;SDS011;59739;47.696;11.746;2022-11-15T17:04:00;8.93;;;5.65;;
71869;SDS011;59739;47.696;11.746;2022-11-15T17:06:40;11.40;;;7.70;;
71869;SDS011;59739;47.696;11.746;2022-11-15T17:09:19;12.18;;;7.72;;
71869;SDS011;59739;47.696;11.746;2022-11-15T17:11:50;10.30;;;7.25;;
71869;SDS011;59739;47.696;11.746;2022-11-15T17:14:16;11.32;;;7.78;;
71869;SDS011;59739;47.696;11.746;2022-11-15T17:16:43;9.93;;;7.95;;
71869;SDS011;59739;47.696;11.746;2022-11-15T17:19:13;11.65;;;6.93;;
71869;SDS011;59739;47.696;11.746;2022-11-15T17:21:44;9.90;;;7.63;;
71869;SDS011;59739;47.696;11.746;2022-11-15T17:24:13;10.57;;;7.40;;
71869;SDS011;59739;47.696;11.746;2022-11-15T17:26:39;10.00;;;7.60;;
71869;SDS011;59739;47.696;11.746;2022-11-15T17:29:07;12.43;;;8.27;;
71869;SDS011;59739;47.696;11.746;2022-11-15T17:31:41;10.73;;;8.07;;
71869;SDS011;59739;47.696;11.746;2022-11-15T17:34:08;14.52;;;9.75;;
71869;SDS011;59739;47.696;11.746;2022-11-15T17:36:34;12.00;;;8.65;;
71869;SDS011;59739;47.696;11.746;2022-11-15T17:39:01;13.00;;;9.43;;
71869;SDS011;59739;47.696;11.746;2022-11-15T17:41:28;11.02;;;8.98;;
71869;SDS011;59739;47.696;11.746;2022-11-15T17:43:55;12.48;;;9.60;;
71869;SDS011;59739;47.696;11.746;2022-11-15T17:46:23;15.00;;;9.40;;
71869;SDS011;59739;47.696;11.746;2022-11-15T17:48:51;15.95;;;9.70;;
71869;SDS011;59739;47.696;11.746;2022-11-15T17:51:18;13.60;;;9.93;;
71869;SDS011;59739;47.696;11.746;2022-11-15T17:53:46;28.88;;;15.63;;
71869;SDS011;59739;47.696;11.746;2022-11-15T17:56:15;23.98;;;13.18;;
71869;SDS011;59739;47.696;11.746;2022-11-15T17:58:46;24.63;;;12.00;;
71869;SDS011;59739;47.696;11.746;2022-11-15T18:01:23;18.10;;;11.07;;
71869;SDS011;59739;47.696;11.746;2022-11-15T18:06:22;14.48;;;9.88;;
71869;SDS011;59739;47.696;11.746;2022-11-15T18:08:50;13.80;;;9.93;;
71869;SDS011;59739;47.696;11.746;2022-11-15T18:11:19;16.58;;;10.75;;
71869;SDS011;59739;47.696;11.746;2022-11-15T18:13:58;15.82;;;9.95;;
71869;SDS011;59739;47.696;11.746;2022-11-15T18:16:28;15.65;;;10.48;;
71869;SDS011;59739;47.696;11.746;2022-11-15T18:18:56;11.02;;;7.85;;
71869;SDS011;59739;47.696;11.746;2022-11-15T18:21:27;8.18;;;6.65;;